Terminal Aerodrome Forecast
Issued by NWS

Home | Current Version | Previous Version | Text Only | Print | Product List | Glossary On
Versions: 1 2 3 4 5 6 7 8 9 10 11 12 13 14 15 16 17 18
000
FTUS46 KLOX 080009 AAA
TAFWJF
TAF AMD
KWJF 080009Z 0800/0824 23020G30KT P6SM SKC
     FM080300 23015KT P6SM SKC
     FM081100 24010KT P6SM SKC
     FM081800 22017KT P6SM SKC
     FM082000 22017G25KT P6SM SKC
     FM082200 22022G30KT P6SM SKC=

USA.gov is the U.S. government's official web portal to all federal, state and local government web resources and services.